Terminal Aerodrome Forecast
Issued by NWS San Angelo, TX

Home | Current Version | Previous Version | Text Only | Print | Product List | Glossary On
Versions: 1 2 3 4 5 6 7 8 9 10 11 12 13 14 15 16 17 18 19 20
000
FTUS44 KSJT 011241 AAB
TAFSJT
TAF AMD
KSJT 011241Z 0113/0212 05011KT P6SM SCT020 OVC040
     FM011900 05012G20KT P6SM BKN035
     FM020000 02015G22KT P6SM VCSH BKN035=

USA.gov is the U.S. government's official web portal to all federal, state and local government web resources and services.